sensor_id;sensor_type;location;lat;lon;timestamp;pressure;altitude;pressure_sealevel;temperature;humidity
6567;BME280;3317;43.994;22.878;2022-12-05T00:02:17;102376.63;;;4.69;100.00
6567;BME280;3317;43.994;22.878;2022-12-05T00:04:44;102373.94;;;4.69;100.00
6567;BME280;3317;43.994;22.878;2022-12-05T00:07:13;102367.78;;;4.67;100.00
6567;BME280;3317;43.994;22.878;2022-12-05T00:09:40;102369.72;;;4.63;100.00
6567;BME280;3317;43.994;22.878;2022-12-05T00:12:07;102367.91;;;4.63;100.00
6567;BME280;3317;43.994;22.878;2022-12-05T00:14:33;102385.63;;;4.68;100.00
6567;BME280;3317;43.994;22.878;2022-12-05T00:17:00;102374.00;;;4.67;100.00
6567;BME280;3317;43.994;22.878;2022-12-05T00:19:27;102378.63;;;4.63;100.00
6567;BME280;3317;43.994;22.878;2022-12-05T00:21:54;102368.94;;;4.61;100.00
6567;BME280;3317;43.994;22.878;2022-12-05T00:24:23;102378.41;;;4.68;100.00
6567;BME280;3317;43.994;22.878;2022-12-05T00:26:50;102372.19;;;4.68;100.00
6567;BME280;3317;43.994;22.878;2022-12-05T00:29:17;102389.25;;;4.67;100.00
6567;BME280;3317;43.994;22.878;2022-12-05T00:31:44;102383.78;;;4.68;100.00
6567;BME280;3317;43.994;22.878;2022-12-05T00:34:11;102384.81;;;4.65;100.00
6567;BME280;3317;43.994;22.878;2022-12-05T00:36:39;102379.44;;;4.65;99.92
6567;BME280;3317;43.994;22.878;2022-12-05T00:39:08;102373.16;;;4.67;100.00
6567;BME280;3317;43.994;22.878;2022-12-05T00:41:37;102383.56;;;4.73;99.55
6567;BME280;3317;43.994;22.878;2022-12-05T00:44:05;102383.41;;;4.76;99.47
6567;BME280;3317;43.994;22.878;2022-12-05T00:46:33;102383.41;;;4.76;99.30
6567;BME280;3317;43.994;22.878;2022-12-05T00:49:02;102375.97;;;4.63;99.75
6567;BME280;3317;43.994;22.878;2022-12-05T00:51:31;102390.09;;;4.67;99.67
6567;BME280;3317;43.994;22.878;2022-12-05T00:53:59;102385.63;;;4.68;99.75
6567;BME280;3317;43.994;22.878;2022-12-05T00:56:28;102384.97;;;4.62;99.53
6567;BME280;3317;43.994;22.878;2022-12-05T00:58:57;102382.94;;;4.68;99.73
6567;BME280;3317;43.994;22.878;2022-12-05T01:01:26;102380.38;;;4.64;99.80
6567;BME280;3317;43.994;22.878;2022-12-05T01:03:56;102380.47;;;4.63;99.79
6567;BME280;3317;43.994;22.878;2022-12-05T01:06:24;102377.84;;;4.61;99.87
6567;BME280;3317;43.994;22.878;2022-12-05T01:08:52;102387.59;;;4.64;99.63
6567;BME280;3317;43.994;22.878;2022-12-05T01:11:20;102373.44;;;4.60;99.67
6567;BME280;3317;43.994;22.878;2022-12-05T01:13:48;102364.75;;;4.55;99.66
6567;BME280;3317;43.994;22.878;2022-12-05T01:16:18;102369.00;;;4.59;99.39
6567;BME280;3317;43.994;22.878;2022-12-05T01:18:46;102375.31;;;4.58;99.71
6567;BME280;3317;43.994;22.878;2022-12-05T01:21:13;102358.63;;;4.51;100.00
6567;BME280;3317;43.994;22.878;2022-12-05T01:23:40;102360.22;;;4.56;100.00
6567;BME280;3317;43.994;22.878;2022-12-05T01:26:10;102364.75;;;4.55;100.00
6567;BME280;3317;43.994;22.878;2022-12-05T01:28:37;102361.16;;;4.55;100.00
6567;BME280;3317;43.994;22.878;2022-12-05T01:31:06;102367.53;;;4.52;100.00
6567;BME280;3317;43.994;22.878;2022-12-05T01:33:35;102350.66;;;4.50;100.00
6567;BME280;3317;43.994;22.878;2022-12-05T01:36:02;102353.31;;;4.50;100.00
6567;BME280;3317;43.994;22.878;2022-12-05T01:38:29;102355.16;;;4.49;100.00
6567;BME280;3317;43.994;22.878;2022-12-05T01:41:00;102351.53;;;4.50;100.00
6567;BME280;3317;43.994;22.878;2022-12-05T01:43:27;102352.94;;;4.58;99.86
6567;BME280;3317;43.994;22.878;2022-12-05T01:45:54;102354.63;;;4.60;100.00
6567;BME280;3317;43.994;22.878;2022-12-05T01:48:25;102340.00;;;4.48;100.00
6567;BME280;3317;43.994;22.878;2022-12-05T01:50:56;102343.31;;;4.54;99.80
6567;BME280;3317;43.994;22.878;2022-12-05T01:53:24;102338.84;;;4.54;99.96
6567;BME280;3317;43.994;22.878;2022-12-05T01:55:54;102341.00;;;4.46;100.00
6567;BME280;3317;43.994;22.878;2022-12-05T01:58:21;102348.75;;;4.52;100.00
6567;BME280;3317;43.994;22.878;2022-12-05T02:00:50;102343.31;;;4.54;100.00
6567;BME280;3317;43.994;22.878;2022-12-05T02:03:19;102345.13;;;4.53;100.00
6567;BME280;3317;43.994;22.878;2022-12-05T02:05:49;102338.72;;;4.56;100.00
6567;BME280;3317;43.994;22.878;2022-12-05T02:08:18;102331.34;;;4.61;100.00
6567;BME280;3317;43.994;22.878;2022-12-05T02:10:49;102338.72;;;4.56;100.00
6567;BME280;3317;43.994;22.878;2022-12-05T02:13:33;102341.34;;;4.57;100.00
6567;BME280;3317;43.994;22.878;2022-12-05T02:16:08;102342.38;;;4.55;100.00
6567;BME280;3317;43.994;22.878;2022-12-05T02:18:48;102342.94;;;4.61;100.00
6567;BME280;3317;43.994;22.878;2022-12-05T02:21:44;102344.38;;;4.69;99.90
6567;BME280;3317;43.994;22.878;2022-12-05T02:24:39;102337.28;;;4.68;100.00
6567;BME280;3317;43.994;22.878;2022-12-05T02:27:25;102338.22;;;4.67;100.00
6567;BME280;3317;43.994;22.878;2022-12-05T02:30:07;102325.97;;;4.61;100.00
6567;BME280;3317;43.994;22.878;2022-12-05T02:32:43;102329.59;;;4.60;100.00
6567;BME280;3317;43.994;22.878;2022-12-05T02:35:20;102325.25;;;4.57;100.00
6567;BME280;3317;43.994;22.878;2022-12-05T02:37:57;102334.31;;;4.55;100.00
6567;BME280;3317;43.994;22.878;2022-12-05T02:40:30;102337.00;;;4.55;100.00
6567;BME280;3317;43.994;22.878;2022-12-05T02:43:06;102331.63;;;4.55;100.00
6567;BME280;3317;43.994;22.878;2022-12-05T02:45:37;102329.09;;;4.51;100.00
6567;BME280;3317;43.994;22.878;2022-12-05T02:48:05;102324.47;;;4.55;100.00
6567;BME280;3317;43.994;22.878;2022-12-05T02:50:36;102324.47;;;4.55;100.00
6567;BME280;3317;43.994;22.878;2022-12-05T02:53:06;102322.22;;;4.46;100.00
6567;BME280;3317;43.994;22.878;2022-12-05T02:55:35;102333.38;;;4.56;100.00
6567;BME280;3317;43.994;22.878;2022-12-05T02:58:06;102310.69;;;4.44;100.00
6567;BME280;3317;43.994;22.878;2022-12-05T03:00:36;102327.38;;;4.50;100.00
6567;BME280;3317;43.994;22.878;2022-12-05T03:03:11;102320.31;;;4.48;100.00
6567;BME280;3317;43.994;22.878;2022-12-05T03:05:42;102316.63;;;4.50;100.00
6567;BME280;3317;43.994;22.878;2022-12-05T03:08:14;102316.06;;;4.44;100.00
6567;BME280;3317;43.994;22.878;2022-12-05T03:10:44;102322.22;;;4.46;100.00
6567;BME280;3317;43.994;22.878;2022-12-05T03:13:17;102321.84;;;4.54;100.00
6567;BME280;3317;43.994;22.878;2022-12-05T03:15:48;102326.63;;;4.47;100.00
6567;BME280;3317;43.994;22.878;2022-12-05T03:18:21;102319.53;;;4.46;100.00
6567;BME280;3317;43.994;22.878;2022-12-05T03:20:55;102263.06;;;4.11;100.00
6567;BME280;3317;43.994;22.878;2022-12-05T03:23:26;102308.22;;;4.39;100.00
6567;BME280;3317;43.994;22.878;2022-12-05T03:26:02;102316.13;;;4.42;100.00
6567;BME280;3317;43.994;22.878;2022-12-05T03:28:43;102312.41;;;4.45;100.00
6567;BME280;3317;43.994;22.878;2022-12-05T03:31:20;102318.75;;;4.44;100.00
6567;BME280;3317;43.994;22.878;2022-12-05T03:33:52;102302.13;;;4.35;100.00
6567;BME280;3317;43.994;22.878;2022-12-05T03:36:27;102325.69;;;4.48;100.00
6567;BME280;3317;43.994;22.878;2022-12-05T03:39:02;102320.75;;;4.39;100.00
6567;BME280;3317;43.994;22.878;2022-12-05T03:41:37;102322.22;;;4.46;100.00
6567;BME280;3317;43.994;22.878;2022-12-05T03:44:08;102326.78;;;4.44;100.00
6567;BME280;3317;43.994;22.878;2022-12-05T03:46:42;102317.28;;;4.36;100.00
6567;BME280;3317;43.994;22.878;2022-12-05T03:49:12;102318.66;;;4.45;100.00
6567;BME280;3317;43.994;22.878;2022-12-05T03:51:46;102317.94;;;4.42;100.00
6567;BME280;3317;43.994;22.878;2022-12-05T03:54:18;102323.22;;;4.43;100.00
6567;BME280;3317;43.994;22.878;2022-12-05T03:56:51;102323.16;;;4.45;100.00
6567;BME280;3317;43.994;22.878;2022-12-05T03:59:25;102323.44;;;4.39;100.00
6567;BME280;3317;43.994;22.878;2022-12-05T04:01:58;102318.91;;;4.41;100.00
6567;BME280;3317;43.994;22.878;2022-12-05T04:04:30;102322.38;;;4.43;100.00
6567;BME280;3317;43.994;22.878;2022-12-05T04:07:01;102317.84;;;4.43;100.00
6567;BME280;3317;43.994;22.878;2022-12-05T04:09:33;102320.06;;;4.35;100.00
6567;BME280;3317;43.994;22.878;2022-12-05T04:12:04;102319.81;;;4.40;100.00
6567;BME280;3317;43.994;22.878;2022-12-05T04:14:35;102320.06;;;4.35;100.00
6567;BME280;3317;43.994;22.878;2022-12-05T04:17:06;102316.28;;;4.39;100.00
6567;BME280;3317;43.994;22.878;2022-12-05T04:19:39;102324.25;;;4.41;100.00
6567;BME280;3317;43.994;22.878;2022-12-05T04:22:27;102309.44;;;4.32;100.00
6567;BME280;3317;43.994;22.878;2022-12-05T04:24:56;102320.06;;;4.35;100.00
6567;BME280;3317;43.994;22.878;2022-12-05T04:28:02;102327.44;;;4.30;100.00
6567;BME280;3317;43.994;22.878;2022-12-05T04:30:35;102327.16;;;4.36;100.00
6567;BME280;3317;43.994;22.878;2022-12-05T04:33:10;102305.41;;;4.23;100.00
6567;BME280;3317;43.994;22.878;2022-12-05T04:35:42;102328.19;;;4.33;100.00
6567;BME280;3317;43.994;22.878;2022-12-05T04:38:14;102322.22;;;4.27;100.00
6567;BME280;3317;43.994;22.878;2022-12-05T04:40:46;102297.78;;;4.14;100.00
6567;BME280;3317;43.994;22.878;2022-12-05T04:43:15;102320.84;;;4.37;100.00
6567;BME280;3317;43.994;22.878;2022-12-05T04:45:44;102309.53;;;4.30;100.00
6567;BME280;3317;43.994;22.878;2022-12-05T04:48:15;102337.97;;;4.34;100.00
6567;BME280;3317;43.994;22.878;2022-12-05T04:50:45;102334.50;;;4.32;100.00
6567;BME280;3317;43.994;22.878;2022-12-05T04:53:15;102333.47;;;4.35;100.00
6567;BME280;3317;43.994;22.878;2022-12-05T04:55:45;102327.59;;;4.27;100.00
6567;BME280;3317;43.994;22.878;2022-12-05T04:58:16;102336.00;;;4.38;100.00
6567;BME280;3317;43.994;22.878;2022-12-05T05:00:49;102328.03;;;4.36;100.00
6567;BME280;3317;43.994;22.878;2022-12-05T05:03:23;102333.91;;;4.45;100.00
6567;BME280;3317;43.994;22.878;2022-12-05T05:05:54;102342.91;;;4.44;100.00
6567;BME280;3317;43.994;22.878;2022-12-05T05:08:24;102342.81;;;4.45;100.00
6567;BME280;3317;43.994;22.878;2022-12-05T05:11:02;102317.28;;;4.36;100.00
6567;BME280;3317;43.994;22.878;2022-12-05T05:13:29;102352.69;;;4.45;100.00
6567;BME280;3317;43.994;22.878;2022-12-05T05:15:56;102351.03;;;4.42;100.00
6567;BME280;3317;43.994;22.878;2022-12-05T05:18:24;102356.47;;;4.41;100.00
6567;BME280;3317;43.994;22.878;2022-12-05T05:20:51;102353.41;;;4.48;100.00
6567;BME280;3317;43.994;22.878;2022-12-05T05:23:18;102352.25;;;4.54;100.00
6567;BME280;3317;43.994;22.878;2022-12-05T05:25:51;102364.78;;;4.54;100.00
6567;BME280;3317;43.994;22.878;2022-12-05T05:28:18;102347.16;;;4.48;100.00
6567;BME280;3317;43.994;22.878;2022-12-05T05:30:45;102353.53;;;4.45;100.00
6567;BME280;3317;43.994;22.878;2022-12-05T05:33:12;102367.22;;;4.41;100.00
6567;BME280;3317;43.994;22.878;2022-12-05T05:35:40;102351.91;;;4.43;100.00
6567;BME280;3317;43.994;22.878;2022-12-05T05:38:07;102361.69;;;4.44;100.00
6567;BME280;3317;43.994;22.878;2022-12-05T05:40:35;102357.91;;;4.48;100.00
6567;BME280;3317;43.994;22.878;2022-12-05T05:43:02;102370.59;;;4.44;100.00
6567;BME280;3317;43.994;22.878;2022-12-05T05:45:29;102366.91;;;4.47;100.00
6567;BME280;3317;43.994;22.878;2022-12-05T05:47:56;102354.06;;;4.34;100.00
6567;BME280;3317;43.994;22.878;2022-12-05T05:50:23;102358.22;;;4.42;100.00
6567;BME280;3317;43.994;22.878;2022-12-05T05:52:51;102369.44;;;4.50;100.00
6567;BME280;3317;43.994;22.878;2022-12-05T05:55:18;102356.31;;;4.44;100.00
6567;BME280;3317;43.994;22.878;2022-12-05T05:57:46;102366.31;;;4.59;100.00
6567;BME280;3317;43.994;22.878;2022-12-05T06:00:14;102386.22;;;4.55;100.00
6567;BME280;3317;43.994;22.878;2022-12-05T06:02:41;102379.91;;;4.56;100.00
6567;BME280;3317;43.994;22.878;2022-12-05T06:05:08;102387.84;;;4.58;100.00
6567;BME280;3317;43.994;22.878;2022-12-05T06:07:35;102381.41;;;4.62;100.00
6567;BME280;3317;43.994;22.878;2022-12-05T06:10:04;102375.47;;;4.55;100.00
6567;BME280;3317;43.994;22.878;2022-12-05T06:12:31;102376.34;;;4.56;100.00
6567;BME280;3317;43.994;22.878;2022-12-05T06:14:58;102374.66;;;4.53;100.00
6567;BME280;3317;43.994;22.878;2022-12-05T06:17:25;102369.28;;;4.53;100.00
6567;BME280;3317;43.994;22.878;2022-12-05T06:19:52;102368.59;;;4.49;100.00
6567;BME280;3317;43.994;22.878;2022-12-05T06:22:19;102369.75;;;4.44;100.00
6567;BME280;3317;43.994;22.878;2022-12-05T06:24:46;102375.59;;;4.52;100.00
6567;BME280;3317;43.994;22.878;2022-12-05T06:27:14;102369.28;;;4.53;100.00
6567;BME280;3317;43.994;22.878;2022-12-05T06:29:41;102374.00;;;4.48;100.00
6567;BME280;3317;43.994;22.878;2022-12-05T06:32:08;102372.28;;;4.47;100.00
6567;BME280;3317;43.994;22.878;2022-12-05T06:34:35;102368.50;;;4.51;100.00
6567;BME280;3317;43.994;22.878;2022-12-05T06:37:02;102380.97;;;4.52;100.00
6567;BME280;3317;43.994;22.878;2022-12-05T06:39:29;102378.59;;;4.46;100.00
6567;BME280;3317;43.994;22.878;2022-12-05T06:41:56;102370.69;;;4.43;100.00
6567;BME280;3317;43.994;22.878;2022-12-05T06:44:25;102372.34;;;4.45;100.00
6567;BME280;3317;43.994;22.878;2022-12-05T06:46:53;102377.72;;;4.45;100.00
6567;BME280;3317;43.994;22.878;2022-12-05T06:49:21;102384.13;;;4.43;100.00
6567;BME280;3317;43.994;22.878;2022-12-05T06:51:50;102382.13;;;4.46;100.00
6567;BME280;3317;43.994;22.878;2022-12-05T06:54:17;102382.97;;;4.48;100.00
6567;BME280;3317;43.994;22.878;2022-12-05T06:56:44;102376.69;;;4.48;100.00
6567;BME280;3317;43.994;22.878;2022-12-05T06:59:11;102386.66;;;4.46;100.00
6567;BME280;3317;43.994;22.878;2022-12-05T07:01:39;102395.50;;;4.48;100.00
6567;BME280;3317;43.994;22.878;2022-12-05T07:04:09;102395.34;;;4.51;100.00
6567;BME280;3317;43.994;22.878;2022-12-05T07:06:37;102386.59;;;4.47;100.00
6567;BME280;3317;43.994;22.878;2022-12-05T07:09:05;102384.47;;;4.54;100.00
6567;BME280;3317;43.994;22.878;2022-12-05T07:11:32;102384.59;;;4.51;100.00
6567;BME280;3317;43.994;22.878;2022-12-05T07:13:59;102389.97;;;4.51;100.00
6567;BME280;3317;43.994;22.878;2022-12-05T07:16:26;102402.03;;;4.42;100.00
6567;BME280;3317;43.994;22.878;2022-12-05T07:18:55;102388.06;;;4.53;100.00
6567;BME280;3317;43.994;22.878;2022-12-05T07:21:22;102398.91;;;4.51;100.00
6567;BME280;3317;43.994;22.878;2022-12-05T07:23:49;102393.91;;;4.44;100.00
6567;BME280;3317;43.994;22.878;2022-12-05T07:26:18;102401.50;;;4.53;100.00
6567;BME280;3317;43.994;22.878;2022-12-05T07:28:45;102403.03;;;4.59;100.00
6567;BME280;3317;43.994;22.878;2022-12-05T07:31:14;102409.72;;;4.50;100.00
6567;BME280;3317;43.994;22.878;2022-12-05T07:33:42;102411.75;;;4.45;100.00
6567;BME280;3317;43.994;22.878;2022-12-05T07:36:12;102403.75;;;4.43;100.00
6567;BME280;3317;43.994;22.878;2022-12-05T07:38:40;102417.13;;;4.45;100.00
6567;BME280;3317;43.994;22.878;2022-12-05T07:41:09;102425.66;;;4.53;100.00
6567;BME280;3317;43.994;22.878;2022-12-05T07:43:38;102415.88;;;4.52;100.00
6567;BME280;3317;43.994;22.878;2022-12-05T07:46:07;102403.56;;;4.48;100.00
6567;BME280;3317;43.994;22.878;2022-12-05T07:48:35;102412.75;;;4.61;100.00
6567;BME280;3317;43.994;22.878;2022-12-05T07:51:04;102420.25;;;4.55;100.00
6567;BME280;3317;43.994;22.878;2022-12-05T07:53:33;102416.41;;;4.60;100.00
6567;BME280;3317;43.994;22.878;2022-12-05T07:56:00;102413.56;;;4.63;100.00
6567;BME280;3317;43.994;22.878;2022-12-05T07:58:28;102407.19;;;4.66;100.00
6567;BME280;3317;43.994;22.878;2022-12-05T08:00:55;102411.53;;;4.69;100.00
6567;BME280;3317;43.994;22.878;2022-12-05T08:03:22;102412.91;;;4.58;100.00
6567;BME280;3317;43.994;22.878;2022-12-05T08:05:49;102422.56;;;4.62;100.00
6567;BME280;3317;43.994;22.878;2022-12-05T08:08:16;102377.50;;;4.31;100.00
6567;BME280;3317;43.994;22.878;2022-12-05T08:10:44;102414.59;;;4.61;100.00
6567;BME280;3317;43.994;22.878;2022-12-05T08:13:11;102412.53;;;4.66;100.00
6567;BME280;3317;43.994;22.878;2022-12-05T08:15:38;102421.63;;;4.63;100.00
6567;BME280;3317;43.994;22.878;2022-12-05T08:18:05;102412.47;;;4.68;100.00
6567;BME280;3317;43.994;22.878;2022-12-05T08:20:32;102424.88;;;4.70;100.00
6567;BME280;3317;43.994;22.878;2022-12-05T08:22:59;102416.97;;;4.67;100.00
6567;BME280;3317;43.994;22.878;2022-12-05T08:25:26;102416.13;;;4.67;100.00
6567;BME280;3317;43.994;22.878;2022-12-05T08:27:54;102419.81;;;4.64;100.00
6567;BME280;3317;43.994;22.878;2022-12-05T08:30:21;102416.59;;;4.75;100.00
6567;BME280;3317;43.994;22.878;2022-12-05T08:32:48;102412.81;;;4.79;100.00
6567;BME280;3317;43.994;22.878;2022-12-05T08:35:15;102415.66;;;4.76;100.00
6567;BME280;3317;43.994;22.878;2022-12-05T08:37:42;102416.38;;;4.79;100.00
6567;BME280;3317;43.994;22.878;2022-12-05T08:40:10;102414.47;;;4.82;100.00
6567;BME280;3317;43.994;22.878;2022-12-05T08:42:37;102415.66;;;4.76;100.00
6567;BME280;3317;43.994;22.878;2022-12-05T08:45:06;102407.94;;;4.87;99.28
6567;BME280;3317;43.994;22.878;2022-12-05T08:47:33;102413.75;;;4.78;99.55
6567;BME280;3317;43.994;22.878;2022-12-05T08:50:01;102408.94;;;4.85;99.91
6567;BME280;3317;43.994;22.878;2022-12-05T08:52:28;102401.78;;;4.85;99.76
6567;BME280;3317;43.994;22.878;2022-12-05T08:54:55;102396.47;;;4.84;99.85
6567;BME280;3317;43.994;22.878;2022-12-05T08:57:22;102399.72;;;4.90;99.45
6567;BME280;3317;43.994;22.878;2022-12-05T08:59:49;102395.22;;;4.91;99.62
6567;BME280;3317;43.994;22.878;2022-12-05T09:02:18;102401.72;;;4.87;99.86
6567;BME280;3317;43.994;22.878;2022-12-05T09:04:49;102398.38;;;4.82;100.00
6567;BME280;3317;43.994;22.878;2022-12-05T09:07:15;102396.25;;;4.88;99.84
6567;BME280;3317;43.994;22.878;2022-12-05T09:09:42;102389.22;;;4.86;99.34
6567;BME280;3317;43.994;22.878;2022-12-05T09:12:09;102402.38;;;4.73;100.00
6567;BME280;3317;43.994;22.878;2022-12-05T09:14:36;102398.97;;;4.69;100.00
6567;BME280;3317;43.994;22.878;2022-12-05T09:17:03;102396.84;;;4.76;99.96
6567;BME280;3317;43.994;22.878;2022-12-05T09:19:31;102408.53;;;4.75;99.86
6567;BME280;3317;43.994;22.878;2022-12-05T09:21:58;102388.72;;;4.77;100.00
6567;BME280;3317;43.994;22.878;2022-12-05T09:24:25;102389.44;;;4.81;100.00
6567;BME280;3317;43.994;22.878;2022-12-05T09:26:52;102395.78;;;4.80;100.00
6567;BME280;3317;43.994;22.878;2022-12-05T09:29:19;102390.53;;;4.77;100.00
6567;BME280;3317;43.994;22.878;2022-12-05T09:31:47;102387.28;;;4.70;100.00
6567;BME280;3317;43.994;22.878;2022-12-05T09:34:17;102390.91;;;4.69;100.00
6567;BME280;3317;43.994;22.878;2022-12-05T09:36:46;102392.41;;;4.75;100.00
6567;BME280;3317;43.994;22.878;2022-12-05T09:39:16;102391.41;;;4.77;100.00
6567;BME280;3317;43.994;22.878;2022-12-05T09:45:20;102373.91;;;4.88;100.00
6567;BME280;3317;43.994;22.878;2022-12-05T09:47:53;102378.59;;;4.83;100.00
6567;BME280;3317;43.994;22.878;2022-12-05T09:50:24;102376.66;;;4.86;99.64
6567;BME280;3317;43.994;22.878;2022-12-05T09:53:04;102378.78;;;4.79;100.00
6567;BME280;3317;43.994;22.878;2022-12-05T09:55:41;102374.56;;;4.74;100.00
6567;BME280;3317;43.994;22.878;2022-12-05T09:58:26;102358.00;;;4.83;99.64
6567;BME280;3317;43.994;22.878;2022-12-05T10:00:59;102359.97;;;4.79;99.43
6567;BME280;3317;43.994;22.878;2022-12-05T10:03:32;102352.91;;;4.77;99.61
6567;BME280;3317;43.994;22.878;2022-12-05T10:06:09;102355.16;;;4.86;99.49
6567;BME280;3317;43.994;22.878;2022-12-05T10:08:54;102345.34;;;4.85;99.23
6567;BME280;3317;43.994;22.878;2022-12-05T10:11:27;102357.38;;;4.96;98.44
6567;BME280;3317;43.994;22.878;2022-12-05T10:14:03;102354.69;;;4.96;98.42
6567;BME280;3317;43.994;22.878;2022-12-05T10:16:37;102353.75;;;4.97;98.35
6567;BME280;3317;43.994;22.878;2022-12-05T10:19:11;102359.34;;;4.92;98.59
6567;BME280;3317;43.994;22.878;2022-12-05T10:21:46;102361.16;;;4.91;98.48
6567;BME280;3317;43.994;22.878;2022-12-05T10:24:23;102362.03;;;4.92;98.91
6567;BME280;3317;43.994;22.878;2022-12-05T10:26:55;102352.47;;;4.86;98.99
6567;BME280;3317;43.994;22.878;2022-12-05T10:29:27;102358.47;;;4.91;98.77
6567;BME280;3317;43.994;22.878;2022-12-05T10:32:02;102364.56;;;4.95;98.07
6567;BME280;3317;43.994;22.878;2022-12-05T10:34:33;102353.19;;;4.90;98.48
6567;BME280;3317;43.994;22.878;2022-12-05T10:37:08;102343.16;;;4.93;98.62
6567;BME280;3317;43.994;22.878;2022-12-05T10:39:37;102353.03;;;4.93;98.51
6567;BME280;3317;43.994;22.878;2022-12-05T10:42:06;102333.72;;;4.85;98.65
6567;BME280;3317;43.994;22.878;2022-12-05T10:44:37;102334.28;;;4.74;99.10
6567;BME280;3317;43.994;22.878;2022-12-05T10:47:04;102332.47;;;4.74;99.18
6567;BME280;3317;43.994;22.878;2022-12-05T10:49:33;102341.09;;;4.81;99.26
6567;BME280;3317;43.994;22.878;2022-12-05T10:52:00;102344.63;;;4.82;99.45
6567;BME280;3317;43.994;22.878;2022-12-05T10:54:29;102339.25;;;4.82;99.85
6567;BME280;3317;43.994;22.878;2022-12-05T10:56:59;102328.13;;;4.72;99.87
6567;BME280;3317;43.994;22.878;2022-12-05T10:59:44;102331.13;;;4.83;99.65
6567;BME280;3317;43.994;22.878;2022-12-05T11:02:20;102331.13;;;4.83;100.00
6567;BME280;3317;43.994;22.878;2022-12-05T11:04:47;102328.06;;;4.91;100.00
6567;BME280;3317;43.994;22.878;2022-12-05T11:07:25;102331.69;;;4.90;99.90
6567;BME280;3317;43.994;22.878;2022-12-05T11:09:53;102321.34;;;4.82;100.00
6567;BME280;3317;43.994;22.878;2022-12-05T11:12:22;102321.25;;;4.84;100.00
6567;BME280;3317;43.994;22.878;2022-12-05T11:14:56;102318.16;;;4.91;100.00
6567;BME280;3317;43.994;22.878;2022-12-05T11:17:26;102304.28;;;4.83;100.00
6567;BME280;3317;43.994;22.878;2022-12-05T11:19:53;102298.50;;;4.91;100.00
6567;BME280;3317;43.994;22.878;2022-12-05T11:22:29;102298.28;;;4.96;100.00
6567;BME280;3317;43.994;22.878;2022-12-05T11:24:57;102291.94;;;4.97;100.00
6567;BME280;3317;43.994;22.878;2022-12-05T11:27:28;102289.09;;;5.00;100.00
6567;BME280;3317;43.994;22.878;2022-12-05T11:30:00;102288.88;;;5.04;100.00
6567;BME280;3317;43.994;22.878;2022-12-05T11:32:29;102286.19;;;5.04;99.38
6567;BME280;3317;43.994;22.878;2022-12-05T11:35:04;102281.53;;;5.08;99.49
6567;BME280;3317;43.994;22.878;2022-12-05T11:37:37;102271.50;;;5.12;99.40
6567;BME280;3317;43.994;22.878;2022-12-05T11:40:13;102265.06;;;5.14;99.32
6567;BME280;3317;43.994;22.878;2022-12-05T11:42:53;102265.16;;;5.13;99.35
6567;BME280;3317;43.994;22.878;2022-12-05T11:45:35;102260.56;;;5.15;99.18
6567;BME280;3317;43.994;22.878;2022-12-05T11:48:17;102265.94;;;5.15;98.92
6567;BME280;3317;43.994;22.878;2022-12-05T11:50:54;102256.03;;;5.15;98.74
6567;BME280;3317;43.994;22.878;2022-12-05T11:53:44;102254.53;;;5.10;99.22
6567;BME280;3317;43.994;22.878;2022-12-05T11:56:24;102251.56;;;5.16;98.96
6567;BME280;3317;43.994;22.878;2022-12-05T11:59:12;102255.03;;;5.18;98.90
6567;BME280;3317;43.994;22.878;2022-12-05T12:01:51;102252.03;;;5.06;99.17
6567;BME280;3317;43.994;22.878;2022-12-05T12:07:25;102254.25;;;5.16;99.11
6567;BME280;3317;43.994;22.878;2022-12-05T12:10:03;102259.06;;;5.09;98.94
6567;BME280;3317;43.994;22.878;2022-12-05T12:12:41;102247.19;;;5.13;98.97
6567;BME280;3317;43.994;22.878;2022-12-05T12:15:37;102243.25;;;5.20;99.07
6567;BME280;3317;43.994;22.878;2022-12-05T12:18:17;102237.69;;;5.24;99.03
6567;BME280;3317;43.994;22.878;2022-12-05T12:20:58;102239.44;;;5.25;98.68
6567;BME280;3317;43.994;22.878;2022-12-05T12:23:42;102234.06;;;5.25;98.85
6567;BME280;3317;43.994;22.878;2022-12-05T12:26:19;102237.63;;;5.25;98.51
6567;BME280;3317;43.994;22.878;2022-12-05T12:28:57;102224.25;;;5.24;98.59
6567;BME280;3317;43.994;22.878;2022-12-05T12:31:51;102233.88;;;5.28;98.80
6567;BME280;3317;43.994;22.878;2022-12-05T12:34:42;102219.19;;;5.17;98.65
6567;BME280;3317;43.994;22.878;2022-12-05T12:37:19;102228.63;;;5.26;98.35
6567;BME280;3317;43.994;22.878;2022-12-05T12:39:51;102227.34;;;5.16;98.69
6567;BME280;3317;43.994;22.878;2022-12-05T12:42:25;102227.34;;;5.16;98.74
6567;BME280;3317;43.994;22.878;2022-12-05T12:45:30;102226.47;;;5.15;98.67
6567;BME280;3317;43.994;22.878;2022-12-05T12:48:15;102209.91;;;5.07;98.47
6567;BME280;3317;43.994;22.878;2022-12-05T12:50:50;102223.97;;;5.12;98.38
6567;BME280;3317;43.994;22.878;2022-12-05T12:53:37;102225.78;;;5.12;98.74
6567;BME280;3317;43.994;22.878;2022-12-05T12:56:18;102232.75;;;5.16;98.77
6567;BME280;3317;43.994;22.878;2022-12-05T12:58:52;102224.56;;;5.17;98.50
6567;BME280;3317;43.994;22.878;2022-12-05T13:01:28;102221.63;;;5.06;98.53
6567;BME280;3317;43.994;22.878;2022-12-05T13:04:04;102225.78;;;5.12;98.71
6567;BME280;3317;43.994;22.878;2022-12-05T13:06:41;102215.19;;;5.08;98.81
6567;BME280;3317;43.994;22.878;2022-12-05T13:09:15;102225.94;;;5.08;98.85
6567;BME280;3317;43.994;22.878;2022-12-05T13:11:45;102219.78;;;5.06;98.81
6567;BME280;3317;43.994;22.878;2022-12-05T13:14:15;102213.38;;;5.09;99.15
6567;BME280;3317;43.994;22.878;2022-12-05T13:16:46;102219.59;;;5.10;99.11
6567;BME280;3317;43.994;22.878;2022-12-05T13:19:25;102205.75;;;5.17;99.00
6567;BME280;3317;43.994;22.878;2022-12-05T13:21:54;102204.91;;;5.17;98.77
6567;BME280;3317;43.994;22.878;2022-12-05T13:24:25;102211.06;;;5.19;98.42
6567;BME280;3317;43.994;22.878;2022-12-05T13:26:56;102213.69;;;5.20;98.49
6567;BME280;3317;43.994;22.878;2022-12-05T13:29:29;102214.47;;;5.22;98.67
6567;BME280;3317;43.994;22.878;2022-12-05T13:31:59;102205.44;;;5.24;98.33
6567;BME280;3317;43.994;22.878;2022-12-05T13:34:42;102200.78;;;5.27;98.45